createdAt,value
2019-03-28T00:00:58.573Z,0.00
2019-03-28T00:01:58.562Z,0.00
2019-03-28T00:02:58.581Z,0.00
2019-03-28T00:03:58.540Z,0.00
2019-03-28T00:04:58.548Z,0.00
2019-03-28T00:05:58.519Z,0.00
2019-03-28T00:06:58.506Z,0.00
2019-03-28T00:07:58.520Z,0.00
2019-03-28T00:08:58.483Z,0.00
2019-03-28T00:09:58.473Z,0.00
2019-03-28T00:10:58.462Z,0.00
2019-03-28T00:11:58.461Z,0.00
2019-03-28T00:12:58.465Z,0.00
2019-03-28T00:13:58.427Z,0.00
2019-03-28T00:14:58.420Z,0.00
2019-03-28T00:15:58.423Z,0.00
2019-03-28T00:16:58.394Z,0.00
2019-03-28T00:17:58.426Z,0.00
2019-03-28T00:18:58.376Z,0.00
2019-03-28T00:19:58.361Z,0.00
2019-03-28T00:20:58.349Z,0.00
2019-03-28T00:21:58.340Z,0.00
2019-03-28T00:22:58.351Z,0.00
2019-03-28T00:23:58.314Z,0.00
2019-03-28T00:24:58.316Z,0.00
2019-03-28T00:25:58.366Z,0.00
2019-03-28T00:26:58.281Z,0.00
2019-03-28T00:27:58.298Z,0.00
2019-03-28T00:28:58.259Z,0.00
2019-03-28T00:29:58.245Z,0.00
2019-03-28T00:30:58.251Z,0.00
2019-03-28T00:31:58.225Z,0.00
2019-03-28T00:32:58.238Z,0.00
2019-03-28T00:33:58.200Z,0.00
2019-03-28T00:34:58.194Z,0.00
2019-03-28T00:35:58.179Z,0.00
2019-03-28T00:36:58.177Z,0.00
2019-03-28T00:37:58.182Z,0.00
2019-03-28T00:38:58.145Z,0.00
2019-03-28T00:39:58.137Z,0.00
2019-03-28T00:40:58.127Z,0.00
2019-03-28T00:41:58.117Z,0.00
2019-03-28T00:42:58.159Z,0.00
2019-03-28T00:43:58.092Z,0.00
2019-03-28T00:44:58.079Z,0.00
2019-03-28T00:45:58.070Z,0.00
2019-03-28T00:46:58.058Z,0.00
2019-03-28T00:47:58.077Z,0.00
2019-03-28T00:48:58.032Z,0.00
2019-03-28T00:49:58.053Z,0.00
2019-03-28T00:50:58.013Z,0.00
2019-03-28T00:51:58.000Z,0.00
2019-03-28T00:52:57.994Z,0.00
2019-03-28T00:53:58.002Z,0.00
2019-03-28T00:54:57.968Z,0.00
2019-03-28T00:55:57.962Z,0.00
2019-03-28T00:56:57.958Z,0.00
2019-03-28T00:57:57.934Z,0.00
2019-03-28T00:58:57.952Z,0.00
2019-03-28T00:59:57.915Z,0.00
2019-03-28T01:00:57.898Z,0.00
2019-03-28T01:01:57.896Z,0.00
2019-03-28T01:02:57.876Z,0.00
2019-03-28T01:03:57.894Z,0.00
2019-03-28T01:04:57.854Z,0.00
2019-03-28T01:05:57.845Z,0.00
2019-03-28T01:06:57.870Z,0.00
2019-03-28T01:07:57.828Z,0.00
2019-03-28T01:08:57.834Z,0.00
2019-03-28T01:09:57.824Z,0.00
2019-03-28T01:10:57.791Z,0.00
2019-03-28T01:11:57.776Z,0.00
2019-03-28T01:12:57.765Z,0.00
2019-03-28T01:13:57.779Z,0.00
2019-03-28T01:14:58.162Z,0.00
2019-03-28T01:15:57.730Z,0.00
2019-03-28T01:16:57.719Z,0.00
2019-03-28T01:17:57.707Z,0.00
2019-03-28T01:18:57.723Z,0.00
2019-03-28T01:19:57.687Z,0.00
2019-03-28T01:20:57.682Z,0.00
2019-03-28T01:21:57.664Z,0.00
2019-03-28T01:22:57.661Z,0.00
2019-03-28T01:23:57.667Z,0.00
2019-03-28T01:24:57.888Z,0.00
2019-03-28T01:25:57.618Z,0.00
2019-03-28T01:26:58.870Z,0.00
2019-03-28T01:27:57.596Z,0.00
2019-03-28T01:28:57.609Z,0.00
2019-03-28T01:29:57.570Z,0.00
2019-03-28T01:30:57.567Z,0.00
2019-03-28T01:31:57.551Z,0.00
2019-03-28T01:32:57.571Z,0.00
2019-03-28T01:33:57.553Z,0.00
2019-03-28T01:34:57.744Z,0.00
2019-03-28T01:35:57.507Z,0.00
2019-03-28T01:36:57.494Z,0.00
2019-03-28T01:37:57.483Z,0.00
2019-03-28T01:38:57.502Z,0.00
2019-03-28T01:39:57.462Z,0.00
2019-03-28T01:40:57.465Z,0.00
2019-03-28T01:41:57.435Z,0.00
2019-03-28T01:42:57.423Z,0.00
2019-03-28T01:43:57.438Z,0.00
2019-03-28T01:44:57.402Z,0.00
2019-03-28T01:45:57.390Z,0.00
2019-03-28T01:46:57.388Z,0.00
2019-03-28T01:47:57.368Z,0.00
2019-03-28T01:48:57.360Z,0.00
2019-03-28T01:49:57.369Z,0.00
2019-03-28T01:50:57.335Z,0.00
2019-03-28T01:51:57.325Z,0.00
2019-03-28T01:52:57.353Z,0.00
2019-03-28T01:53:57.303Z,0.00
2019-03-28T01:54:57.318Z,0.00
2019-03-28T01:55:57.277Z,0.00
2019-03-28T01:57:09.942Z,0.00
2019-03-28T01:57:58.254Z,0.00
2019-03-28T01:58:57.257Z,0.00
2019-03-28T01:59:57.259Z,0.00
2019-03-28T02:00:57.223Z,0.00
2019-03-28T02:01:57.211Z,0.00
2019-03-28T02:02:57.203Z,0.00
2019-03-28T02:03:57.187Z,0.00
2019-03-28T02:04:57.208Z,0.00
2019-03-28T02:05:57.168Z,0.00
2019-03-28T02:06:57.169Z,0.00
2019-03-28T02:07:57.143Z,0.00
2019-03-28T02:08:57.137Z,0.00
2019-03-28T02:09:57.144Z,0.00
2019-03-28T02:10:57.107Z,0.00
2019-03-28T02:11:57.099Z,0.00
2019-03-28T02:12:57.140Z,0.00
2019-03-28T02:13:57.074Z,0.00
2019-03-28T02:14:57.065Z,0.00
2019-03-28T02:15:57.078Z,0.00
2019-03-28T02:16:57.042Z,0.00
2019-03-28T02:17:57.031Z,0.00
2019-03-28T02:18:57.020Z,0.00
2019-03-28T02:19:57.007Z,0.00
2019-03-28T02:20:57.034Z,0.00
2019-03-28T02:21:56.987Z,0.00
2019-03-28T02:22:56.972Z,0.00
2019-03-28T02:23:56.963Z,0.00
2019-03-28T02:24:56.951Z,0.00
2019-03-28T02:25:56.961Z,0.00
2019-03-28T02:26:56.926Z,0.00
2019-03-28T02:27:56.933Z,0.00
2019-03-28T02:28:56.906Z,0.00
2019-03-28T02:29:56.891Z,0.00
2019-03-28T02:30:56.909Z,0.00
2019-03-28T02:31:56.870Z,0.00
2019-03-28T02:32:56.858Z,0.00
2019-03-28T02:33:56.860Z,0.00
2019-03-28T02:34:56.854Z,0.00
2019-03-28T02:35:56.853Z,0.00
2019-03-28T02:36:56.814Z,0.00
2019-03-28T02:37:56.802Z,0.00
2019-03-28T02:38:56.796Z,0.00
2019-03-28T02:39:56.787Z,0.00
2019-03-28T02:40:56.805Z,0.00
2019-03-28T02:41:56.770Z,0.00
2019-03-28T02:42:56.745Z,0.00
2019-03-28T02:43:56.735Z,0.00
2019-03-28T02:44:56.734Z,0.00
2019-03-28T02:45:56.797Z,0.00
2019-03-28T02:46:56.709Z,0.00
2019-03-28T02:47:56.690Z,0.00
2019-03-28T02:48:56.680Z,0.00
2019-03-28T02:49:56.672Z,0.00
2019-03-28T02:50:56.683Z,0.00
2019-03-28T02:51:56.649Z,0.00
2019-03-28T02:52:56.647Z,0.00
2019-03-28T02:53:56.628Z,0.00
2019-03-28T02:54:57.885Z,0.00
2019-03-28T02:55:56.621Z,0.00
2019-03-28T02:56:56.586Z,0.00
2019-03-28T02:57:56.576Z,0.00
2019-03-28T02:58:56.593Z,0.00
2019-03-28T02:59:56.553Z,0.00
2019-03-28T03:00:56.564Z,0.00
2019-03-28T03:01:56.538Z,0.00
2019-03-28T03:02:56.521Z,0.00
2019-03-28T03:03:56.506Z,0.00
2019-03-28T03:04:56.508Z,0.00
2019-03-28T03:05:56.494Z,0.00
2019-03-28T03:06:56.496Z,0.00
2019-03-28T03:07:56.462Z,0.00
2019-03-28T03:08:56.474Z,0.00
2019-03-28T03:09:56.443Z,0.00
2019-03-28T03:10:56.447Z,0.00
2019-03-28T03:11:56.463Z,0.00
2019-03-28T03:12:56.401Z,0.00
2019-03-28T03:13:56.389Z,0.00
2019-03-28T03:14:56.411Z,0.00
2019-03-28T03:15:56.866Z,0.00
2019-03-28T03:16:56.383Z,0.00
2019-03-28T03:17:56.346Z,0.00
2019-03-28T03:18:56.337Z,0.00
2019-03-28T03:19:56.319Z,0.00
2019-03-28T03:20:56.324Z,0.00
2019-03-28T03:21:56.327Z,0.00
2019-03-28T03:22:56.290Z,0.00
2019-03-28T03:23:56.274Z,0.00
2019-03-28T03:24:56.275Z,0.00
2019-03-28T03:25:56.250Z,0.00
2019-03-28T03:26:56.290Z,0.00
2019-03-28T03:27:58.881Z,0.00
2019-03-28T03:28:56.239Z,0.00
2019-03-28T03:29:56.205Z,0.00
2019-03-28T03:30:56.196Z,0.00
2019-03-28T03:31:56.208Z,0.00
2019-03-28T03:32:56.173Z,0.00
2019-03-28T03:33:56.159Z,0.00
2019-03-28T03:34:56.201Z,0.00
2019-03-28T03:35:56.136Z,0.00
2019-03-28T03:36:56.154Z,0.00
2019-03-28T03:37:56.242Z,0.00
2019-03-28T03:38:56.112Z,0.00
2019-03-28T03:39:56.089Z,0.00
2019-03-28T03:40:56.089Z,0.00
2019-03-28T03:41:56.079Z,0.00
2019-03-28T03:42:56.771Z,0.00
2019-03-28T03:43:56.049Z,0.00
2019-03-28T03:44:56.031Z,0.00
2019-03-28T03:45:56.026Z,0.00
2019-03-28T03:46:56.013Z,0.00
2019-03-28T03:47:56.030Z,0.00
2019-03-28T03:48:56.014Z,0.00
2019-03-28T03:49:56.531Z,0.00
2019-03-28T03:50:55.969Z,0.00
2019-03-28T03:51:55.956Z,0.00
2019-03-28T03:52:55.978Z,0.00
2019-03-28T03:53:55.943Z,0.00
2019-03-28T03:54:55.921Z,0.00
2019-03-28T03:55:55.912Z,0.00
2019-03-28T03:56:55.900Z,0.00
2019-03-28T03:57:55.952Z,0.00
2019-03-28T03:58:55.878Z,0.00
2019-03-28T03:59:55.861Z,0.00
2019-03-28T04:00:55.853Z,0.00
2019-03-28T04:01:55.839Z,0.00
2019-03-28T04:02:55.853Z,0.00
2019-03-28T04:03:56.155Z,0.00
2019-03-28T04:04:56.850Z,0.00
2019-03-28T04:05:55.821Z,0.00
2019-03-28T04:06:55.787Z,0.00
2019-03-28T04:07:55.797Z,0.00
2019-03-28T04:08:55.759Z,0.00
2019-03-28T04:09:55.748Z,0.00
2019-03-28T04:10:55.738Z,0.00
2019-03-28T04:11:55.738Z,0.00
2019-03-28T04:12:55.741Z,0.00
2019-03-28T04:13:55.709Z,0.00
2019-03-28T04:14:55.693Z,0.00
2019-03-28T04:15:55.692Z,0.00
2019-03-28T04:16:55.920Z,0.00
2019-03-28T04:17:55.683Z,0.00
2019-03-28T04:18:55.649Z,0.00
2019-03-28T04:19:55.665Z,0.00
2019-03-28T04:20:55.623Z,0.00
2019-03-28T04:21:55.615Z,0.00
2019-03-28T04:22:55.635Z,0.00
2019-03-28T04:23:55.806Z,0.00
2019-03-28T04:24:55.580Z,0.00
2019-03-28T04:25:55.569Z,0.00
2019-03-28T04:26:55.576Z,0.00
2019-03-28T04:27:55.580Z,0.00
2019-03-28T04:28:55.541Z,0.00
2019-03-28T04:29:56.618Z,0.00
2019-03-28T04:30:55.525Z,0.00
2019-03-28T04:31:55.501Z,0.00
2019-03-28T04:32:55.519Z,0.00
2019-03-28T04:33:55.504Z,0.00
2019-03-28T04:34:55.470Z,0.00
2019-03-28T04:35:55.458Z,0.00
2019-03-28T04:36:55.446Z,0.00
2019-03-28T04:37:55.467Z,0.00
2019-03-28T04:38:55.427Z,0.00
2019-03-28T04:39:55.429Z,0.00
2019-03-28T04:40:55.423Z,0.00
2019-03-28T04:41:55.392Z,0.00
2019-03-28T04:42:55.379Z,0.00
2019-03-28T04:43:56.035Z,0.00
2019-03-28T04:44:55.359Z,0.00
2019-03-28T04:45:55.449Z,0.00
2019-03-28T04:46:55.330Z,0.00
2019-03-28T04:47:55.327Z,0.00
2019-03-28T04:48:55.338Z,0.00
2019-03-28T04:49:55.295Z,0.00
2019-03-28T04:50:55.284Z,0.00
2019-03-28T04:51:55.273Z,0.00
2019-03-28T04:52:55.265Z,0.00
2019-03-28T04:53:56.428Z,0.00
2019-03-28T04:54:55.424Z,0.00
2019-03-28T04:55:55.232Z,0.00
2019-03-28T04:56:55.216Z,0.00
2019-03-28T04:57:55.477Z,0.00
2019-03-28T04:58:55.218Z,0.00
2019-03-28T04:59:55.181Z,0.00
2019-03-28T05:00:55.175Z,4.00
2019-03-28T05:02:03.030Z,0.00
2019-03-28T05:02:56.158Z,0.00
2019-03-28T05:03:55.163Z,0.00
2019-03-28T05:04:55.152Z,4.00
2019-03-28T05:05:55.115Z,0.00
2019-03-28T05:06:55.105Z,4.00
2019-03-28T05:07:55.133Z,4.00
2019-03-28T05:08:55.105Z,4.00
2019-03-28T05:09:55.067Z,4.00
2019-03-28T05:10:55.061Z,4.00
2019-03-28T05:11:55.045Z,4.00
2019-03-28T05:12:55.037Z,8.00
2019-03-28T05:13:55.050Z,8.00
2019-03-28T05:14:55.029Z,8.00
2019-03-28T05:15:55.036Z,8.00
2019-03-28T05:16:54.988Z,8.00
2019-03-28T05:17:54.977Z,12.00
2019-03-28T05:18:54.989Z,8.00
2019-03-28T05:19:54.960Z,12.00
2019-03-28T05:20:54.945Z,12.00
2019-03-28T05:21:54.947Z,12.00
2019-03-28T05:22:54.923Z,16.00
2019-03-28T05:23:54.910Z,12.00
2019-03-28T05:24:54.925Z,16.00
2019-03-28T05:25:54.887Z,16.00
2019-03-28T05:26:54.877Z,16.00
2019-03-28T05:27:54.893Z,16.00
2019-03-28T05:28:57.760Z,20.00
2019-03-28T05:29:54.869Z,20.00
2019-03-28T05:30:54.858Z,20.00
2019-03-28T05:31:54.819Z,24.00
2019-03-28T05:32:54.809Z,24.00
2019-03-28T05:33:54.809Z,24.00
2019-03-28T05:34:54.810Z,28.00
2019-03-28T05:35:54.775Z,32.00
2019-03-28T05:36:54.768Z,32.00
2019-03-28T05:37:54.756Z,36.00
2019-03-28T05:38:54.765Z,40.00
2019-03-28T05:39:54.765Z,40.00
2019-03-28T05:40:54.720Z,48.00
2019-03-28T05:41:54.715Z,52.00
2019-03-28T05:42:54.699Z,52.00
2019-03-28T05:43:54.687Z,56.00
2019-03-28T05:44:54.718Z,56.00
2019-03-28T05:45:54.663Z,60.00
2019-03-28T05:46:54.656Z,60.00
2019-03-28T05:47:54.642Z,64.00
2019-03-28T05:48:54.630Z,68.00
2019-03-28T05:49:54.644Z,68.00
2019-03-28T05:50:54.614Z,68.00
2019-03-28T05:51:54.597Z,72.00
2019-03-28T05:52:54.727Z,76.00
2019-03-28T05:53:54.580Z,80.00
2019-03-28T05:54:54.593Z,84.00
2019-03-28T05:55:54.551Z,88.00
2019-03-28T05:56:54.545Z,96.00
2019-03-28T05:57:54.572Z,104.00
2019-03-28T05:58:54.517Z,112.00
2019-03-28T05:59:54.526Z,124.00
2019-03-28T06:00:54.516Z,136.00
2019-03-28T06:01:54.484Z,148.00
2019-03-28T06:02:54.467Z,156.00
2019-03-28T06:03:54.457Z,164.00
2019-03-28T06:04:54.479Z,172.00
2019-03-28T06:05:54.454Z,180.00
2019-03-28T06:06:54.426Z,188.00
2019-03-28T06:07:54.424Z,196.00
2019-03-28T06:08:54.399Z,204.00
2019-03-28T06:09:54.418Z,208.00
2019-03-28T06:10:54.385Z,220.00
2019-03-28T06:11:54.641Z,224.00
2019-03-28T06:12:54.364Z,224.00
2019-03-28T06:13:54.364Z,228.00
2019-03-28T06:14:54.339Z,228.00
2019-03-28T06:15:54.349Z,232.00
2019-03-28T06:16:54.310Z,236.00
2019-03-28T06:17:54.435Z,236.00
2019-03-28T06:18:54.302Z,240.00
2019-03-28T06:19:54.273Z,240.00
2019-03-28T06:20:54.289Z,240.00
2019-03-28T06:21:54.252Z,240.00
2019-03-28T06:22:54.243Z,240.00
2019-03-28T06:23:54.230Z,244.00
2019-03-28T06:24:54.234Z,248.00
2019-03-28T06:25:54.230Z,248.00
2019-03-28T06:26:54.192Z,248.00
2019-03-28T06:27:54.256Z,244.00
2019-03-28T06:28:54.170Z,248.00
2019-03-28T06:29:54.162Z,244.00
2019-03-28T06:30:55.890Z,240.00
2019-03-28T06:31:55.689Z,236.00
2019-03-28T06:32:54.125Z,236.00
2019-03-28T06:33:54.117Z,240.00
2019-03-28T06:34:54.104Z,236.00
2019-03-28T06:35:54.117Z,236.00
2019-03-28T06:36:54.097Z,236.00
2019-03-28T06:37:54.076Z,236.00
2019-03-28T06:38:54.068Z,240.00
2019-03-28T06:39:54.051Z,244.00
2019-03-28T06:40:54.070Z,252.00
2019-03-28T06:41:54.031Z,260.00
2019-03-28T06:42:54.011Z,272.00
2019-03-28T06:43:54.046Z,284.00
2019-03-28T06:44:53.989Z,300.00
2019-03-28T06:45:53.980Z,312.00
2019-03-28T06:46:53.995Z,328.00
2019-03-28T06:47:53.960Z,344.00
2019-03-28T06:48:53.949Z,360.00
2019-03-28T06:49:53.962Z,372.00
2019-03-28T06:50:53.926Z,380.00
2019-03-28T06:51:53.942Z,396.00
2019-03-28T06:52:53.902Z,404.00
2019-03-28T06:53:56.975Z,412.00
2019-03-28T06:54:53.879Z,416.00
2019-03-28T06:55:53.872Z,420.00
2019-03-28T06:56:53.892Z,420.00
2019-03-28T06:57:53.847Z,420.00
2019-03-28T06:58:53.839Z,420.00
2019-03-28T06:59:53.823Z,424.00
2019-03-28T07:00:53.813Z,440.00
2019-03-28T07:01:53.825Z,448.00
2019-03-28T07:02:53.788Z,460.00
2019-03-28T07:03:53.781Z,460.00
2019-03-28T07:04:53.799Z,464.00
2019-03-28T07:05:53.754Z,468.00
2019-03-28T07:06:53.771Z,472.00
2019-03-28T07:07:53.734Z,476.00
2019-03-28T07:08:53.720Z,476.00
2019-03-28T07:09:53.711Z,476.00
2019-03-28T07:10:53.714Z,472.00
2019-03-28T07:11:53.712Z,472.00
2019-03-28T07:12:53.679Z,484.00
2019-03-28T07:13:53.674Z,496.00
2019-03-28T07:14:54.305Z,508.00
2019-03-28T07:15:53.646Z,520.00
2019-03-28T07:16:53.661Z,528.00
2019-03-28T07:17:53.624Z,536.00
2019-03-28T07:18:53.639Z,548.00
2019-03-28T07:19:53.602Z,564.00
2019-03-28T07:20:53.586Z,576.00
2019-03-28T07:21:53.600Z,600.00
2019-03-28T07:22:53.568Z,624.00
2019-03-28T07:23:53.569Z,644.00
2019-03-28T07:24:53.542Z,664.00
2019-03-28T07:25:53.567Z,676.00
2019-03-28T07:26:53.546Z,684.00
2019-03-28T07:27:53.516Z,696.00
2019-03-28T07:28:54.411Z,716.00
2019-03-28T07:29:53.487Z,740.00
2019-03-28T07:30:53.472Z,760.00
2019-03-28T07:31:53.533Z,780.00
2019-03-28T07:32:53.454Z,796.00
2019-03-28T07:33:53.442Z,808.00
2019-03-28T07:34:53.430Z,808.00
2019-03-28T07:35:53.421Z,812.00
2019-03-28T07:36:53.409Z,808.00
2019-03-28T07:37:53.445Z,804.00
2019-03-28T07:38:53.386Z,804.00
2019-03-28T07:39:53.376Z,812.00
2019-03-28T07:40:53.546Z,832.00
2019-03-28T07:41:53.356Z,856.00
2019-03-28T07:42:53.364Z,884.00
2019-03-28T07:43:53.351Z,908.00
2019-03-28T07:44:53.318Z,920.00
2019-03-28T07:45:53.389Z,924.00
2019-03-28T07:46:53.297Z,936.00
2019-03-28T07:47:53.309Z,944.00
2019-03-28T07:48:53.274Z,952.00
2019-03-28T07:49:53.300Z,948.00
2019-03-28T07:50:53.250Z,928.00
2019-03-28T07:51:53.239Z,884.00
2019-03-28T07:52:53.704Z,844.00
2019-03-28T07:53:53.222Z,816.00
2019-03-28T07:54:53.205Z,820.00
2019-03-28T07:55:53.205Z,860.00
2019-03-28T07:56:53.182Z,888.00
2019-03-28T07:57:53.201Z,864.00
2019-03-28T07:58:53.162Z,832.00
2019-03-28T08:00:03.510Z,832.00
2019-03-28T08:00:54.138Z,868.00
2019-03-28T08:01:53.130Z,912.00
2019-03-28T08:02:53.147Z,940.00
2019-03-28T08:03:53.138Z,952.00
2019-03-28T08:04:53.097Z,940.00
2019-03-28T08:05:53.084Z,928.00
2019-03-28T08:06:53.071Z,936.00
2019-03-28T08:07:53.084Z,960.00
2019-03-28T08:08:53.072Z,996.00
2019-03-28T08:09:53.893Z,1040.00
2019-03-28T08:10:53.044Z,1072.00
2019-03-28T08:11:53.013Z,1096.00
2019-03-28T08:12:53.010Z,1088.00
2019-03-28T08:13:53.196Z,1060.00
2019-03-28T08:14:52.982Z,1008.00
2019-03-28T08:15:52.967Z,952.00
2019-03-28T08:16:52.991Z,936.00
2019-03-28T08:17:52.950Z,968.00
2019-03-28T08:18:52.970Z,1008.00
2019-03-28T08:19:52.927Z,1048.00
2019-03-28T08:20:52.911Z,1080.00
2019-03-28T08:21:52.926Z,1096.00
2019-03-28T08:22:52.898Z,1124.00
2019-03-28T08:23:52.906Z,1156.00
2019-03-28T08:24:52.867Z,1176.00
2019-03-28T08:25:52.874Z,1188.00
2019-03-28T08:26:52.845Z,1188.00
2019-03-28T08:27:52.836Z,1176.00
2019-03-28T08:28:52.853Z,1144.00
2019-03-28T08:29:52.823Z,1100.00
2019-03-28T08:30:52.805Z,1064.00
2019-03-28T08:31:52.790Z,1040.00
2019-03-28T08:32:52.777Z,1044.00
2019-03-28T08:33:52.782Z,1068.00
2019-03-28T08:34:52.782Z,1096.00
2019-03-28T08:35:52.743Z,1112.00
2019-03-28T08:36:52.737Z,1128.00
2019-03-28T08:37:52.721Z,1152.00
2019-03-28T08:38:52.746Z,1180.00
2019-03-28T08:39:52.726Z,1204.00
2019-03-28T08:40:52.688Z,1216.00
2019-03-28T08:41:52.675Z,1224.00
2019-03-28T08:42:52.675Z,1216.00
2019-03-28T08:43:52.681Z,1200.00
2019-03-28T08:44:52.672Z,1184.00
2019-03-28T08:45:52.628Z,1184.00
2019-03-28T08:46:52.619Z,1196.00
2019-03-28T08:47:52.713Z,1212.00
2019-03-28T08:48:52.597Z,1228.00
2019-03-28T08:49:52.627Z,1240.00
2019-03-28T08:50:52.573Z,1256.00
2019-03-28T08:51:52.569Z,1276.00
2019-03-28T08:52:52.756Z,1304.00
2019-03-28T08:53:52.567Z,1332.00
2019-03-28T08:54:52.564Z,1364.00
2019-03-28T08:55:52.521Z,1388.00
2019-03-28T08:56:52.509Z,1404.00
2019-03-28T08:57:52.493Z,1412.00
2019-03-28T08:58:52.485Z,1424.00
2019-03-28T08:59:52.499Z,1424.00
2019-03-28T09:00:53.137Z,1424.00
2019-03-28T09:01:52.451Z,1412.00
2019-03-28T09:02:52.462Z,1404.00
2019-03-28T09:03:52.432Z,1416.00
2019-03-28T09:04:52.443Z,1440.00
2019-03-28T09:05:52.421Z,1476.00
2019-03-28T09:06:52.393Z,1484.00
2019-03-28T09:07:52.388Z,1472.00
2019-03-28T09:08:52.372Z,1444.00
2019-03-28T09:09:52.387Z,1412.00
2019-03-28T09:10:52.364Z,1380.00
2019-03-28T09:11:52.334Z,1344.00
2019-03-28T09:12:52.330Z,1336.00
2019-03-28T09:13:52.313Z,1332.00
2019-03-28T09:14:53.591Z,1336.00
2019-03-28T09:15:52.291Z,1336.00
2019-03-28T09:16:52.314Z,1328.00
2019-03-28T09:17:52.272Z,1324.00
2019-03-28T09:18:52.259Z,1324.00
2019-03-28T09:19:52.245Z,1328.00
2019-03-28T09:20:52.283Z,1328.00
2019-03-28T09:21:52.231Z,1328.00
2019-03-28T09:22:52.224Z,1324.00
2019-03-28T09:23:52.206Z,1328.00
2019-03-28T09:24:52.188Z,1340.00
2019-03-28T09:25:52.206Z,1356.00
2019-03-28T09:26:52.170Z,1356.00
2019-03-28T09:27:52.153Z,1360.00
2019-03-28T09:28:52.146Z,1360.00
2019-03-28T09:29:52.137Z,1360.00
2019-03-28T09:30:52.144Z,1348.00
2019-03-28T09:31:52.114Z,1328.00
2019-03-28T09:32:52.126Z,1320.00
2019-03-28T09:33:52.087Z,1324.00
2019-03-28T09:34:52.079Z,1332.00
2019-03-28T09:35:52.223Z,1328.00
2019-03-28T09:36:52.055Z,1328.00
2019-03-28T09:37:52.044Z,1312.00
2019-03-28T09:38:52.028Z,1292.00
2019-03-28T09:39:52.220Z,1260.00
2019-03-28T09:40:52.350Z,1236.00
2019-03-28T09:41:51.995Z,1216.00
2019-03-28T09:42:51.985Z,1188.00
2019-03-28T09:43:55.554Z,1108.00
2019-03-28T09:44:51.963Z,1052.00
2019-03-28T09:45:51.992Z,1024.00
2019-03-28T09:46:51.942Z,980.00
2019-03-28T09:47:51.927Z,960.00
2019-03-28T09:48:51.961Z,1012.00
2019-03-28T09:49:51.905Z,1084.00
2019-03-28T09:50:51.900Z,1124.00
2019-03-28T09:51:51.909Z,1132.00
2019-03-28T09:52:51.881Z,1132.00
2019-03-28T09:53:51.860Z,1128.00
2019-03-28T09:54:51.849Z,1124.00
2019-03-28T09:55:51.837Z,1124.00
2019-03-28T09:56:51.853Z,1128.00
2019-03-28T09:57:51.831Z,1132.00
2019-03-28T09:58:51.805Z,1140.00
2019-03-28T09:59:51.793Z,1160.00
2019-03-28T10:01:02.240Z,1192.00
2019-03-28T10:01:52.797Z,1224.00
2019-03-28T10:02:51.786Z,1256.00
2019-03-28T10:03:51.747Z,1272.00
2019-03-28T10:04:51.740Z,1276.00
2019-03-28T10:05:51.731Z,1272.00
2019-03-28T10:06:51.758Z,1264.00
2019-03-28T10:07:51.709Z,1256.00
2019-03-28T10:08:51.693Z,1252.00
2019-03-28T10:09:52.016Z,1256.00
2019-03-28T10:10:51.703Z,1276.00
2019-03-28T10:11:51.693Z,1300.00
2019-03-28T10:12:51.647Z,1312.00
2019-03-28T10:13:51.637Z,1316.00
2019-03-28T10:14:51.626Z,1300.00
2019-03-28T10:15:51.627Z,1288.00
2019-03-28T10:16:51.636Z,1280.00
2019-03-28T10:17:51.592Z,1284.00
2019-03-28T10:18:51.587Z,1300.00
2019-03-28T10:19:51.575Z,1320.00
2019-03-28T10:20:51.562Z,1332.00
2019-03-28T10:21:51.569Z,1344.00
2019-03-28T10:22:51.532Z,1352.00
2019-03-28T10:23:51.522Z,1368.00
2019-03-28T10:24:51.551Z,1396.00
2019-03-28T10:25:51.499Z,1428.00
2019-03-28T10:26:51.529Z,1468.00
2019-03-28T10:27:51.475Z,1500.00
2019-03-28T10:28:51.472Z,1516.00
2019-03-28T10:29:51.453Z,1528.00
2019-03-28T10:30:51.502Z,1544.00
2019-03-28T10:31:51.431Z,1580.00
2019-03-28T10:32:51.451Z,1632.00
2019-03-28T10:33:51.420Z,1680.00
2019-03-28T10:34:51.401Z,1728.00
2019-03-28T10:35:51.392Z,1756.00
2019-03-28T10:36:51.457Z,1760.00
2019-03-28T10:37:51.390Z,1748.00
2019-03-28T10:38:51.353Z,1736.00
2019-03-28T10:39:51.362Z,1732.00
2019-03-28T10:40:51.330Z,1744.00
2019-03-28T10:41:51.318Z,1760.00
2019-03-28T10:42:51.332Z,1792.00
2019-03-28T10:43:51.314Z,1844.00
2019-03-28T10:44:51.283Z,1916.00
2019-03-28T10:45:51.281Z,1996.00
2019-03-28T10:46:51.265Z,2068.00
2019-03-28T10:47:51.311Z,2140.00
2019-03-28T10:48:54.342Z,2232.00
2019-03-28T10:49:51.232Z,2368.00
2019-03-28T10:50:51.216Z,2516.00
2019-03-28T10:51:51.222Z,2632.00
2019-03-28T10:52:51.218Z,3172.00
2019-03-28T10:53:51.196Z,3212.00
2019-03-28T10:54:51.187Z,3332.00
2019-03-28T10:55:51.165Z,3244.00
2019-03-28T10:56:52.443Z,3400.00
2019-03-28T10:57:51.160Z,3660.00
2019-03-28T10:58:51.125Z,3364.00
2019-03-28T10:59:51.677Z,3276.00
2019-03-28T11:00:54.559Z,3400.00
2019-03-28T11:01:51.256Z,3588.00
2019-03-28T11:02:51.150Z,3708.00
2019-03-28T11:03:51.069Z,3836.00
2019-03-28T11:04:51.072Z,3548.00
2019-03-28T11:05:51.059Z,3096.00
2019-03-28T11:06:51.034Z,2996.00
2019-03-28T11:07:51.048Z,3044.00
2019-03-28T11:08:51.012Z,3120.00
2019-03-28T11:09:51.038Z,3256.00
2019-03-28T11:10:50.990Z,3280.00
2019-03-28T11:11:50.977Z,3304.00
2019-03-28T11:12:50.997Z,3192.00
2019-03-28T11:13:50.980Z,3296.00
2019-03-28T11:14:50.954Z,3432.00
2019-03-28T11:15:50.933Z,3448.00
2019-03-28T11:16:50.941Z,3444.00
2019-03-28T11:17:50.938Z,3396.00
2019-03-28T11:18:50.904Z,3224.00
2019-03-28T11:19:50.896Z,3204.00
2019-03-28T11:20:50.879Z,3204.00
2019-03-28T11:21:50.866Z,3220.00
2019-03-28T11:22:50.891Z,3180.00
2019-03-28T11:23:50.842Z,3152.00
2019-03-28T11:24:50.836Z,3152.00
2019-03-28T11:25:50.821Z,3132.00
2019-03-28T11:26:50.814Z,3184.00
2019-03-28T11:27:50.824Z,3320.00
2019-03-28T11:28:50.862Z,3444.00
2019-03-28T11:29:50.778Z,3724.00
2019-03-28T11:30:51.510Z,3964.00
2019-03-28T11:31:52.273Z,4168.00
2019-03-28T11:32:50.744Z,4328.00
2019-03-28T11:33:50.754Z,4344.00
2019-03-28T11:34:50.717Z,4216.00
2019-03-28T11:35:50.706Z,4304.00
2019-03-28T11:36:50.700Z,4416.00
2019-03-28T11:37:50.713Z,4596.00
2019-03-28T11:38:50.676Z,5452.00
2019-03-28T11:39:50.663Z,7280.00
2019-03-28T11:40:50.650Z,7108.00
2019-03-28T11:41:50.638Z,7556.00
2019-03-28T11:42:52.104Z,6336.00
2019-03-28T11:43:50.616Z,6120.00
2019-03-28T11:44:50.605Z,6100.00
2019-03-28T11:45:50.594Z,7232.00
2019-03-28T11:46:50.585Z,6864.00
2019-03-28T11:47:50.585Z,6160.00
2019-03-28T11:48:50.584Z,6408.00
2019-03-28T11:49:50.548Z,6188.00
2019-03-28T11:50:50.539Z,5844.00
2019-03-28T11:51:50.525Z,5364.00
2019-03-28T11:52:50.517Z,5236.00
2019-03-28T11:53:50.530Z,5296.00
2019-03-28T11:54:50.514Z,5488.00
2019-03-28T11:55:50.481Z,6196.00
2019-03-28T11:56:50.469Z,5580.00
2019-03-28T11:57:50.458Z,5372.00
2019-03-28T11:58:50.511Z,5588.00
2019-03-28T11:59:50.434Z,4988.00
2019-03-28T12:00:50.423Z,4964.00
2019-03-28T12:02:00.042Z,5152.00
2019-03-28T12:02:51.404Z,5784.00
2019-03-28T12:03:50.422Z,6320.00
2019-03-28T12:04:50.390Z,7016.00
2019-03-28T12:05:53.014Z,7388.00
2019-03-28T12:06:50.755Z,7312.00
2019-03-28T12:07:50.449Z,7460.00
2019-03-28T12:08:50.359Z,8524.00
2019-03-28T12:09:50.330Z,5996.00
2019-03-28T12:10:50.330Z,5748.00
2019-03-28T12:11:52.741Z,5024.00
2019-03-28T12:12:50.287Z,4836.00
2019-03-28T12:13:50.300Z,4672.00
2019-03-28T12:14:50.313Z,4956.00
2019-03-28T12:15:50.979Z,5328.00
2019-03-28T12:16:50.247Z,5124.00
2019-03-28T12:17:50.244Z,5316.00
2019-03-28T12:18:50.251Z,5328.00
2019-03-28T12:19:50.246Z,6040.00
2019-03-28T12:20:50.212Z,5740.00
2019-03-28T12:21:50.186Z,6456.00
2019-03-28T12:22:50.174Z,6344.00
2019-03-28T12:23:50.189Z,6176.00
2019-03-28T12:24:50.180Z,6480.00
2019-03-28T12:25:50.145Z,6748.00
2019-03-28T12:26:50.157Z,6588.00
2019-03-28T12:27:50.118Z,6252.00
2019-03-28T12:28:50.109Z,5752.00
2019-03-28T12:29:50.122Z,6636.00
2019-03-28T12:30:50.084Z,7964.00
2019-03-28T12:31:50.083Z,7344.00
2019-03-28T12:32:50.062Z,6556.00
2019-03-28T12:33:50.085Z,5384.00
2019-03-28T12:34:50.066Z,4656.00
2019-03-28T12:35:50.042Z,4516.00
2019-03-28T12:36:50.017Z,4620.00
2019-03-28T12:37:50.009Z,5204.00
2019-03-28T12:38:50.005Z,5488.00
2019-03-28T12:39:50.006Z,5820.00
2019-03-28T12:40:49.972Z,6136.00
2019-03-28T12:41:49.988Z,6856.00